sensor_id;sensor_type;location;lat;lon;timestamp;pressure;altitude;pressure_sealevel;temperature;humidity
44765;BME280;30484;52.382;5.260;2023-01-25T00:00:46;103918.03;;;4.68;100.00
44765;BME280;30484;52.382;5.260;2023-01-25T00:03:20;103915.47;;;4.73;100.00
44765;BME280;30484;52.382;5.260;2023-01-25T00:05:59;103913.44;;;4.99;100.00
44765;BME280;30484;52.382;5.260;2023-01-25T00:08:29;103906.25;;;4.55;100.00
44765;BME280;30484;52.382;5.260;2023-01-25T00:10:59;103903.88;;;3.97;100.00
44765;BME280;30484;52.382;5.260;2023-01-25T00:13:30;103906.03;;;4.84;100.00
44765;BME280;30484;52.382;5.260;2023-01-25T00:16:01;103900.81;;;4.49;100.00
44765;BME280;30484;52.382;5.260;2023-01-25T00:18:31;103903.25;;;4.06;100.00
44765;BME280;30484;52.382;5.260;2023-01-25T00:21:09;103890.31;;;4.54;100.00
44765;BME280;30484;52.382;5.260;2023-01-25T00:23:41;103899.47;;;4.31;100.00
44765;BME280;30484;52.382;5.260;2023-01-25T00:26:11;103901.41;;;4.75;100.00
44765;BME280;30484;52.382;5.260;2023-01-25T00:28:47;103894.63;;;4.13;100.00
44765;BME280;30484;52.382;5.260;2023-01-25T00:31:21;103895.94;;;4.31;100.00
44765;BME280;30484;52.382;5.260;2023-01-25T00:34:00;103897.25;;;4.48;100.00
44765;BME280;30484;52.382;5.260;2023-01-25T00:36:40;103884.34;;;4.62;100.00
44765;BME280;30484;52.382;5.260;2023-01-25T00:39:12;103899.16;;;4.92;100.00
44765;BME280;30484;52.382;5.260;2023-01-25T00:41:43;103890.38;;;4.95;100.00
44765;BME280;30484;52.382;5.260;2023-01-25T00:44:16;103887.38;;;5.19;100.00
44765;BME280;30484;52.382;5.260;2023-01-25T00:46:45;103887.16;;;5.10;100.00
44765;BME280;30484;52.382;5.260;2023-01-25T00:49:21;103891.22;;;4.92;100.00
44765;BME280;30484;52.382;5.260;2023-01-25T00:51:54;103879.22;;;5.10;100.00
44765;BME280;30484;52.382;5.260;2023-01-25T00:54:24;103880.22;;;5.15;100.00
44765;BME280;30484;52.382;5.260;2023-01-25T00:56:54;103876.72;;;5.16;100.00
44765;BME280;30484;52.382;5.260;2023-01-25T00:59:27;103878.53;;;5.20;100.00
44765;BME280;30484;52.382;5.260;2023-01-25T01:01:56;103878.47;;;5.15;100.00
44765;BME280;30484;52.382;5.260;2023-01-25T01:04:27;103872.75;;;4.97;100.00
44765;BME280;30484;52.382;5.260;2023-01-25T01:06:58;103876.47;;;4.65;100.00
44765;BME280;30484;52.382;5.260;2023-01-25T01:09:27;103879.72;;;4.92;100.00
44765;BME280;30484;52.382;5.260;2023-01-25T01:11:58;103872.28;;;5.15;100.00
44765;BME280;30484;52.382;5.260;2023-01-25T01:14:31;103863.53;;;5.19;100.00
44765;BME280;30484;52.382;5.260;2023-01-25T01:17:01;103865.28;;;5.20;100.00
44765;BME280;30484;52.382;5.260;2023-01-25T01:19:32;103862.25;;;5.01;100.00
44765;BME280;30484;52.382;5.260;2023-01-25T01:22:02;103863.41;;;4.73;100.00
44765;BME280;30484;52.382;5.260;2023-01-25T01:24:31;103860.97;;;4.82;100.00
44765;BME280;30484;52.382;5.260;2023-01-25T01:27:00;103857.84;;;4.62;100.00
44765;BME280;30484;52.382;5.260;2023-01-25T01:29:32;103867.44;;;4.19;100.00
44765;BME280;30484;52.382;5.260;2023-01-25T01:32:02;103865.38;;;4.44;100.00
44765;BME280;30484;52.382;5.260;2023-01-25T01:34:33;103860.81;;;4.75;100.00
44765;BME280;30484;52.382;5.260;2023-01-25T01:37:03;103852.81;;;4.73;100.00
44765;BME280;30484;52.382;5.260;2023-01-25T01:39:33;103857.25;;;4.74;100.00
44765;BME280;30484;52.382;5.260;2023-01-25T01:42:04;103861.81;;;4.42;100.00
44765;BME280;30484;52.382;5.260;2023-01-25T01:44:49;103862.72;;;4.82;100.00
44765;BME280;30484;52.382;5.260;2023-01-25T01:47:24;103864.47;;;4.81;100.00
44765;BME280;30484;52.382;5.260;2023-01-25T01:50:00;103861.41;;;5.03;100.00
44765;BME280;30484;52.382;5.260;2023-01-25T01:52:34;103862.84;;;4.88;100.00
44765;BME280;30484;52.382;5.260;2023-01-25T01:55:08;103851.41;;;4.89;100.00
44765;BME280;30484;52.382;5.260;2023-01-25T01:57:45;103859.31;;;4.49;100.00
44765;BME280;30484;52.382;5.260;2023-01-25T02:00:22;103860.91;;;4.79;100.00
44765;BME280;30484;52.382;5.260;2023-01-25T02:02:55;103854.81;;;4.83;100.00
44765;BME280;30484;52.382;5.260;2023-01-25T02:05:31;103856.81;;;4.95;100.00
44765;BME280;30484;52.382;5.260;2023-01-25T02:08:05;103850.91;;;5.09;100.00
44765;BME280;30484;52.382;5.260;2023-01-25T02:10:38;103850.22;;;5.16;100.00
44765;BME280;30484;52.382;5.260;2023-01-25T02:13:08;103848.28;;;4.31;100.00
44765;BME280;30484;52.382;5.260;2023-01-25T02:15:43;103833.19;;;4.27;100.00
44765;BME280;30484;52.382;5.260;2023-01-25T02:18:14;103835.09;;;4.71;100.00
44765;BME280;30484;52.382;5.260;2023-01-25T02:20:46;103839.69;;;4.78;100.00
44765;BME280;30484;52.382;5.260;2023-01-25T02:23:23;103841.69;;;4.13;100.00
44765;BME280;30484;52.382;5.260;2023-01-25T02:25:58;103834.94;;;4.25;100.00
44765;BME280;30484;52.382;5.260;2023-01-25T02:28:33;103839.47;;;3.95;100.00
44765;BME280;30484;52.382;5.260;2023-01-25T02:31:04;103838.03;;;4.45;100.00
44765;BME280;30484;52.382;5.260;2023-01-25T02:33:37;103833.97;;;4.59;100.00
44765;BME280;30484;52.382;5.260;2023-01-25T02:36:20;103821.84;;;4.32;100.00
44765;BME280;30484;52.382;5.260;2023-01-25T02:38:57;103832.19;;;3.87;100.00
44765;BME280;30484;52.382;5.260;2023-01-25T02:41:38;103827.44;;;4.08;100.00
44765;BME280;30484;52.382;5.260;2023-01-25T02:44:13;103816.69;;;4.39;100.00
44765;BME280;30484;52.382;5.260;2023-01-25T02:46:43;103823.31;;;4.56;100.00
44765;BME280;30484;52.382;5.260;2023-01-25T02:49:15;103823.00;;;4.44;100.00
44765;BME280;30484;52.382;5.260;2023-01-25T02:51:52;103817.22;;;4.60;100.00
44765;BME280;30484;52.382;5.260;2023-01-25T02:54:24;103812.72;;;4.56;100.00
44765;BME280;30484;52.382;5.260;2023-01-25T02:56:57;103803.09;;;4.61;100.00
44765;BME280;30484;52.382;5.260;2023-01-25T02:59:29;103800.06;;;4.84;100.00
44765;BME280;30484;52.382;5.260;2023-01-25T03:01:59;103811.56;;;4.84;100.00
44765;BME280;30484;52.382;5.260;2023-01-25T03:04:30;103801.59;;;4.73;100.00
44765;BME280;30484;52.382;5.260;2023-01-25T03:06:59;103801.03;;;4.10;100.00
44765;BME280;30484;52.382;5.260;2023-01-25T03:09:29;103806.47;;;4.54;100.00
44765;BME280;30484;52.382;5.260;2023-01-25T03:12:00;103802.66;;;4.41;100.00
44765;BME280;30484;52.382;5.260;2023-01-25T03:14:29;103805.19;;;4.37;100.00
44765;BME280;30484;52.382;5.260;2023-01-25T03:16:58;103805.72;;;4.60;100.00
44765;BME280;30484;52.382;5.260;2023-01-25T03:19:48;103803.84;;;4.56;100.00
44765;BME280;30484;52.382;5.260;2023-01-25T03:22:25;103801.41;;;4.63;100.00
44765;BME280;30484;52.382;5.260;2023-01-25T03:24:56;103793.13;;;4.89;100.00
44765;BME280;30484;52.382;5.260;2023-01-25T03:27:30;103788.25;;;4.68;100.00
44765;BME280;30484;52.382;5.260;2023-01-25T03:29:59;103791.53;;;4.18;100.00
44765;BME280;30484;52.382;5.260;2023-01-25T03:32:30;103781.94;;;3.87;100.00
44765;BME280;30484;52.382;5.260;2023-01-25T03:35:00;103768.03;;;4.32;100.00
44765;BME280;30484;52.382;5.260;2023-01-25T03:37:30;103773.06;;;4.59;100.00
44765;BME280;30484;52.382;5.260;2023-01-25T03:40:01;103759.25;;;4.35;100.00
44765;BME280;30484;52.382;5.260;2023-01-25T03:42:40;103766.38;;;4.37;100.00
44765;BME280;30484;52.382;5.260;2023-01-25T03:45:09;103761.19;;;4.42;100.00
44765;BME280;30484;52.382;5.260;2023-01-25T03:47:42;103765.84;;;4.52;100.00
44765;BME280;30484;52.382;5.260;2023-01-25T03:50:12;103762.78;;;4.75;100.00
44765;BME280;30484;52.382;5.260;2023-01-25T03:52:42;103764.25;;;4.60;100.00
44765;BME280;30484;52.382;5.260;2023-01-25T03:55:15;103763.78;;;4.40;100.00
44765;BME280;30484;52.382;5.260;2023-01-25T03:57:48;103760.47;;;4.49;100.00
44765;BME280;30484;52.382;5.260;2023-01-25T04:00:19;103760.53;;;4.52;100.00
44765;BME280;30484;52.382;5.260;2023-01-25T04:02:50;103763.16;;;4.51;100.00
44765;BME280;30484;52.382;5.260;2023-01-25T04:05:20;103760.50;;;4.12;100.00
44765;BME280;30484;52.382;5.260;2023-01-25T04:07:50;103765.69;;;4.06;100.00
44765;BME280;30484;52.382;5.260;2023-01-25T04:10:20;103761.88;;;3.95;100.00
44765;BME280;30484;52.382;5.260;2023-01-25T04:12:53;103758.78;;;4.14;100.00
44765;BME280;30484;52.382;5.260;2023-01-25T04:15:23;103754.25;;;4.09;100.00
44765;BME280;30484;52.382;5.260;2023-01-25T04:17:54;103747.88;;;4.39;100.00
44765;BME280;30484;52.382;5.260;2023-01-25T04:20:24;103744.72;;;4.55;100.00
44765;BME280;30484;52.382;5.260;2023-01-25T04:22:54;103742.38;;;4.29;100.00
44765;BME280;30484;52.382;5.260;2023-01-25T04:25:50;103747.13;;;4.05;100.00
44765;BME280;30484;52.382;5.260;2023-01-25T04:28:42;103743.59;;;3.69;100.00
44765;BME280;30484;52.382;5.260;2023-01-25T04:31:30;103738.06;;;3.95;100.00
44765;BME280;30484;52.382;5.260;2023-01-25T04:34:19;103736.31;;;3.60;100.00
44765;BME280;30484;52.382;5.260;2023-01-25T04:37:11;103735.72;;;4.09;100.00
44765;BME280;30484;52.382;5.260;2023-01-25T04:40:00;103735.69;;;4.07;100.00
44765;BME280;30484;52.382;5.260;2023-01-25T04:42:50;103730.19;;;3.98;100.00
44765;BME280;30484;52.382;5.260;2023-01-25T04:45:42;103718.94;;;4.46;100.00
44765;BME280;30484;52.382;5.260;2023-01-25T04:48:13;103720.69;;;4.47;100.00
44765;BME280;30484;52.382;5.260;2023-01-25T04:50:44;103717.72;;;3.92;100.00
44765;BME280;30484;52.382;5.260;2023-01-25T04:53:19;103718.09;;;4.08;100.00
44765;BME280;30484;52.382;5.260;2023-01-25T04:56:09;103715.28;;;4.02;100.00
44765;BME280;30484;52.382;5.260;2023-01-25T04:58:40;103707.16;;;3.94;100.00
44765;BME280;30484;52.382;5.260;2023-01-25T05:01:31;103710.34;;;4.17;100.00
44765;BME280;30484;52.382;5.260;2023-01-25T05:04:21;103707.19;;;4.34;100.00
44765;BME280;30484;52.382;5.260;2023-01-25T05:07:11;103718.84;;;4.42;100.00
44765;BME280;30484;52.382;5.260;2023-01-25T05:10:03;103706.78;;;4.56;100.00
44765;BME280;30484;52.382;5.260;2023-01-25T05:12:32;103705.44;;;4.36;100.00
44765;BME280;30484;52.382;5.260;2023-01-25T05:15:04;103696.16;;;4.55;100.00
44765;BME280;30484;52.382;5.260;2023-01-25T05:17:56;103712.13;;;4.18;100.00
44765;BME280;30484;52.382;5.260;2023-01-25T05:20:45;103699.44;;;4.43;100.00
44765;BME280;30484;52.382;5.260;2023-01-25T05:23:34;103710.66;;;3.93;100.00
44765;BME280;30484;52.382;5.260;2023-01-25T05:26:23;103717.59;;;4.26;100.00
44765;BME280;30484;52.382;5.260;2023-01-25T05:29:31;103717.50;;;4.21;100.00
44765;BME280;30484;52.382;5.260;2023-01-25T05:32:10;103716.97;;;4.36;100.00
44765;BME280;30484;52.382;5.260;2023-01-25T05:34:43;103709.03;;;4.38;100.00
44765;BME280;30484;52.382;5.260;2023-01-25T05:37:18;103723.00;;;4.30;100.00
44765;BME280;30484;52.382;5.260;2023-01-25T05:39:53;103709.91;;;3.98;100.00
44765;BME280;30484;52.382;5.260;2023-01-25T05:42:35;103717.22;;;4.50;100.00
44765;BME280;30484;52.382;5.260;2023-01-25T05:45:18;103712.13;;;4.58;100.00
44765;BME280;30484;52.382;5.260;2023-01-25T05:48:08;103694.94;;;4.39;100.00
44765;BME280;30484;52.382;5.260;2023-01-25T05:51:01;103712.13;;;4.58;100.00
44765;BME280;30484;52.382;5.260;2023-01-25T05:53:52;103703.81;;;4.01;100.00
44765;BME280;30484;52.382;5.260;2023-01-25T05:56:42;103711.75;;;4.41;100.00
44765;BME280;30484;52.382;5.260;2023-01-25T05:59:18;103714.59;;;4.50;100.00
44765;BME280;30484;52.382;5.260;2023-01-25T06:01:48;103708.84;;;4.30;100.00
44765;BME280;30484;52.382;5.260;2023-01-25T06:04:28;103707.59;;;4.12;100.00
44765;BME280;30484;52.382;5.260;2023-01-25T06:07:04;103701.16;;;4.41;100.00
44765;BME280;30484;52.382;5.260;2023-01-25T06:09:38;103714.88;;;4.64;100.00
44765;BME280;30484;52.382;5.260;2023-01-25T06:12:10;103713.03;;;4.20;100.00
44765;BME280;30484;52.382;5.260;2023-01-25T06:14:46;103707.19;;;4.34;100.00
44765;BME280;30484;52.382;5.260;2023-01-25T06:17:18;103714.06;;;4.25;100.00
44765;BME280;30484;52.382;5.260;2023-01-25T06:19:47;103725.38;;;4.18;100.00
44765;BME280;30484;52.382;5.260;2023-01-25T06:22:23;103718.31;;;4.19;100.00
44765;BME280;30484;52.382;5.260;2023-01-25T06:25:08;103715.00;;;4.29;100.00
44765;BME280;30484;52.382;5.260;2023-01-25T06:27:43;103715.56;;;3.77;100.00
44765;BME280;30484;52.382;5.260;2023-01-25T06:30:15;103723.75;;;3.87;100.00
44765;BME280;30484;52.382;5.260;2023-01-25T06:32:47;103713.78;;;4.13;100.00
44765;BME280;30484;52.382;5.260;2023-01-25T06:35:18;103716.06;;;4.37;100.00
44765;BME280;30484;52.382;5.260;2023-01-25T06:37:49;103713.28;;;4.29;100.00
44765;BME280;30484;52.382;5.260;2023-01-25T06:40:18;103713.34;;;4.32;100.00
44765;BME280;30484;52.382;5.260;2023-01-25T06:42:51;103719.63;;;3.98;100.00
44765;BME280;30484;52.382;5.260;2023-01-25T06:45:26;103724.66;;;4.25;100.00
44765;BME280;30484;52.382;5.260;2023-01-25T06:47:56;103709.34;;;4.12;100.00
44765;BME280;30484;52.382;5.260;2023-01-25T06:50:30;103717.44;;;4.18;100.00
44765;BME280;30484;52.382;5.260;2023-01-25T06:53:04;103719.31;;;3.86;100.00
44765;BME280;30484;52.382;5.260;2023-01-25T06:55:34;103719.38;;;3.89;100.00
44765;BME280;30484;52.382;5.260;2023-01-25T06:58:04;103708.13;;;3.61;100.00
44765;BME280;30484;52.382;5.260;2023-01-25T07:00:33;103709.47;;;3.80;100.00
44765;BME280;30484;52.382;5.260;2023-01-25T07:03:04;103709.72;;;3.89;100.00
44765;BME280;30484;52.382;5.260;2023-01-25T07:05:33;103704.06;;;3.74;100.00
44765;BME280;30484;52.382;5.260;2023-01-25T07:08:10;103700.00;;;3.90;100.00
44765;BME280;30484;52.382;5.260;2023-01-25T07:10:39;103695.28;;;3.75;100.00
44765;BME280;30484;52.382;5.260;2023-01-25T07:13:11;103695.84;;;4.00;100.00
44765;BME280;30484;52.382;5.260;2023-01-25T07:15:55;103701.69;;;4.24;100.00
44765;BME280;30484;52.382;5.260;2023-01-25T07:18:41;103703.81;;;4.01;100.00
44765;BME280;30484;52.382;5.260;2023-01-25T07:21:13;103709.63;;;3.86;100.00
44765;BME280;30484;52.382;5.260;2023-01-25T07:23:50;103696.84;;;4.05;100.00
44765;BME280;30484;52.382;5.260;2023-01-25T07:26:22;103699.19;;;3.92;100.00
44765;BME280;30484;52.382;5.260;2023-01-25T07:28:53;103699.63;;;4.11;100.00
44765;BME280;30484;52.382;5.260;2023-01-25T07:31:23;103692.88;;;4.25;100.00
44765;BME280;30484;52.382;5.260;2023-01-25T07:33:55;103679.69;;;3.89;100.00
44765;BME280;30484;52.382;5.260;2023-01-25T07:36:25;103690.09;;;3.44;100.00
44765;BME280;30484;52.382;5.260;2023-01-25T07:38:57;103689.34;;;3.85;100.00
44765;BME280;30484;52.382;5.260;2023-01-25T07:41:27;103678.56;;;3.41;100.00
44765;BME280;30484;52.382;5.260;2023-01-25T07:43:56;103680.88;;;3.63;100.00
44765;BME280;30484;52.382;5.260;2023-01-25T07:46:26;103672.97;;;3.63;100.00
44765;BME280;30484;52.382;5.260;2023-01-25T07:48:57;103670.81;;;3.85;100.00
44765;BME280;30484;52.382;5.260;2023-01-25T07:51:27;103673.72;;;3.97;100.00
44765;BME280;30484;52.382;5.260;2023-01-25T07:54:02;103670.22;;;3.60;100.00
44765;BME280;30484;52.382;5.260;2023-01-25T07:56:34;103663.44;;;3.72;100.00
44765;BME280;30484;52.382;5.260;2023-01-25T07:59:05;103653.94;;;3.80;100.00
44765;BME280;30484;52.382;5.260;2023-01-25T08:01:37;103648.75;;;3.47;100.00
44765;BME280;30484;52.382;5.260;2023-01-25T08:04:12;103656.66;;;3.83;100.00
44765;BME280;30484;52.382;5.260;2023-01-25T08:06:42;103652.22;;;3.80;100.00
44765;BME280;30484;52.382;5.260;2023-01-25T08:09:17;103658.41;;;4.22;100.00
44765;BME280;30484;52.382;5.260;2023-01-25T08:11:49;103663.97;;;3.93;100.00
44765;BME280;30484;52.382;5.260;2023-01-25T08:14:22;103661.47;;;4.01;100.00
44765;BME280;30484;52.382;5.260;2023-01-25T08:16:51;103667.03;;;4.12;100.00
44765;BME280;30484;52.382;5.260;2023-01-25T08:19:21;103681.97;;;3.73;100.00
44765;BME280;30484;52.382;5.260;2023-01-25T08:21:53;103670.38;;;4.05;100.00
44765;BME280;30484;52.382;5.260;2023-01-25T08:24:25;103668.44;;;3.97;100.00
44765;BME280;30484;52.382;5.260;2023-01-25T08:26:54;103657.19;;;4.06;100.00
44765;BME280;30484;52.382;5.260;2023-01-25T08:29:26;103661.72;;;4.12;100.00
44765;BME280;30484;52.382;5.260;2023-01-25T08:31:56;103650.00;;;4.01;100.00
44765;BME280;30484;52.382;5.260;2023-01-25T08:34:55;103654.88;;;3.82;100.00
44765;BME280;30484;52.382;5.260;2023-01-25T08:37:24;103655.47;;;4.08;100.00
44765;BME280;30484;52.382;5.260;2023-01-25T08:39:58;103653.31;;;3.54;100.00
44765;BME280;30484;52.382;5.260;2023-01-25T08:42:33;103633.09;;;3.94;100.00
44765;BME280;30484;52.382;5.260;2023-01-25T08:45:04;103627.84;;;3.95;100.00
44765;BME280;30484;52.382;5.260;2023-01-25T08:47:35;103618.31;;;3.64;100.00
44765;BME280;30484;52.382;5.260;2023-01-25T08:50:07;103637.50;;;3.55;100.00
44765;BME280;30484;52.382;5.260;2023-01-25T08:52:36;103632.41;;;4.03;100.00
44765;BME280;30484;52.382;5.260;2023-01-25T08:55:09;103639.75;;;3.76;100.00
44765;BME280;30484;52.382;5.260;2023-01-25T08:57:41;103631.31;;;3.93;100.00
44765;BME280;30484;52.382;5.260;2023-01-25T09:00:13;103628.97;;;3.67;100.00
44765;BME280;30484;52.382;5.260;2023-01-25T09:02:42;103627.03;;;3.60;100.00
44765;BME280;30484;52.382;5.260;2023-01-25T09:05:13;103632.41;;;3.65;100.00
44765;BME280;30484;52.382;5.260;2023-01-25T09:07:45;103639.44;;;4.01;100.00
44765;BME280;30484;52.382;5.260;2023-01-25T09:10:17;103644.13;;;3.76;100.00
44765;BME280;30484;52.382;5.260;2023-01-25T09:12:46;103634.59;;;3.83;100.00
44765;BME280;30484;52.382;5.260;2023-01-25T09:15:16;103631.22;;;3.52;100.00
44765;BME280;30484;52.382;5.260;2023-01-25T09:17:45;103628.69;;;3.94;100.00
44765;BME280;30484;52.382;5.260;2023-01-25T09:20:14;103624.97;;;3.86;100.00
44765;BME280;30484;52.382;5.260;2023-01-25T09:22:45;103616.13;;;3.46;100.00
44765;BME280;30484;52.382;5.260;2023-01-25T09:25:17;103616.00;;;3.78;100.00
44765;BME280;30484;52.382;5.260;2023-01-25T09:27:49;103624.44;;;3.63;100.00
44765;BME280;30484;52.382;5.260;2023-01-25T09:30:21;103627.75;;;3.53;100.00
44765;BME280;30484;52.382;5.260;2023-01-25T09:33:11;103626.88;;;3.92;100.00
44765;BME280;30484;52.382;5.260;2023-01-25T09:35:47;103628.56;;;3.88;100.00
44765;BME280;30484;52.382;5.260;2023-01-25T09:38:16;103615.59;;;3.99;100.00
44765;BME280;30484;52.382;5.260;2023-01-25T09:41:06;103610.03;;;3.88;100.00
44765;BME280;30484;52.382;5.260;2023-01-25T09:44:07;103606.31;;;3.78;100.00
44765;BME280;30484;52.382;5.260;2023-01-25T09:46:43;103602.06;;;3.85;100.00
44765;BME280;30484;52.382;5.260;2023-01-25T09:49:34;103598.88;;;4.02;100.00
44765;BME280;30484;52.382;5.260;2023-01-25T09:52:25;103598.97;;;4.05;100.00
44765;BME280;30484;52.382;5.260;2023-01-25T09:54:58;103603.19;;;3.96;100.00
44765;BME280;30484;52.382;5.260;2023-01-25T09:57:36;103590.22;;;4.10;100.00
44765;BME280;30484;52.382;5.260;2023-01-25T10:00:16;103596.78;;;3.87;100.00
44765;BME280;30484;52.382;5.260;2023-01-25T10:02:56;103584.38;;;3.84;100.00
44765;BME280;30484;52.382;5.260;2023-01-25T10:05:30;103577.59;;;3.57;100.00
44765;BME280;30484;52.382;5.260;2023-01-25T10:08:07;103577.47;;;3.51;100.00
44765;BME280;30484;52.382;5.260;2023-01-25T10:10:44;103574.16;;;4.01;100.00
44765;BME280;30484;52.382;5.260;2023-01-25T10:13:21;103566.22;;;3.60;100.00
44765;BME280;30484;52.382;5.260;2023-01-25T10:15:56;103567.28;;;3.68;100.00
44765;BME280;30484;52.382;5.260;2023-01-25T10:18:34;103561.22;;;3.72;100.00
44765;BME280;30484;52.382;5.260;2023-01-25T10:21:15;103560.88;;;3.98;100.00
44765;BME280;30484;52.382;5.260;2023-01-25T10:24:21;103559.31;;;3.65;100.00
44765;BME280;30484;52.382;5.260;2023-01-25T10:26:56;103551.44;;;3.68;100.00
44765;BME280;30484;52.382;5.260;2023-01-25T10:29:32;103549.06;;;3.80;100.00
44765;BME280;30484;52.382;5.260;2023-01-25T10:32:15;103547.94;;;4.12;100.00
44765;BME280;30484;52.382;5.260;2023-01-25T10:34:46;103546.97;;;4.08;100.00
44765;BME280;30484;52.382;5.260;2023-01-25T10:37:27;103552.66;;;3.84;100.00
44765;BME280;30484;52.382;5.260;2023-01-25T10:40:02;103533.97;;;3.75;100.00
44765;BME280;30484;52.382;5.260;2023-01-25T10:42:40;103527.00;;;3.80;100.00
44765;BME280;30484;52.382;5.260;2023-01-25T10:45:14;103524.59;;;3.91;100.00
44765;BME280;30484;52.382;5.260;2023-01-25T10:47:49;103534.03;;;3.79;100.00
44765;BME280;30484;52.382;5.260;2023-01-25T10:50:45;103522.50;;;3.76;100.00
44765;BME280;30484;52.382;5.260;2023-01-25T10:53:23;103515.75;;;3.92;100.00
44765;BME280;30484;52.382;5.260;2023-01-25T10:56:05;103509.94;;;4.08;100.00
44765;BME280;30484;52.382;5.260;2023-01-25T10:58:42;103490.75;;;4.20;100.00
44765;BME280;30484;52.382;5.260;2023-01-25T11:01:26;103493.66;;;3.88;100.00
44765;BME280;30484;52.382;5.260;2023-01-25T11:03:56;103505.25;;;3.93;100.00
44765;BME280;30484;52.382;5.260;2023-01-25T11:06:32;103496.88;;;3.73;100.00
44765;BME280;30484;52.382;5.260;2023-01-25T11:09:36;103483.31;;;3.56;100.00
44765;BME280;30484;52.382;5.260;2023-01-25T11:12:17;103485.03;;;3.97;100.00
44765;BME280;30484;52.382;5.260;2023-01-25T11:14:47;103479.25;;;4.18;100.00
44765;BME280;30484;52.382;5.260;2023-01-25T11:17:25;103472.50;;;4.36;100.00
44765;BME280;30484;52.382;5.260;2023-01-25T11:20:17;103472.09;;;4.12;100.00
44765;BME280;30484;52.382;5.260;2023-01-25T11:22:54;103463.34;;;4.15;100.00
44765;BME280;30484;52.382;5.260;2023-01-25T11:25:33;103470.13;;;4.01;100.00
44765;BME280;30484;52.382;5.260;2023-01-25T11:28:16;103462.63;;;3.78;100.00
44765;BME280;30484;52.382;5.260;2023-01-25T11:30:46;103461.66;;;4.20;100.00
44765;BME280;30484;52.382;5.260;2023-01-25T11:33:19;103440.97;;;4.48;100.00
44765;BME280;30484;52.382;5.260;2023-01-25T11:36:26;103432.66;;;4.25;100.00
44765;BME280;30484;52.382;5.260;2023-01-25T11:39:24;103412.16;;;4.16;100.00
44765;BME280;30484;52.382;5.260;2023-01-25T11:42:11;103407.88;;;4.23;100.00
44765;BME280;30484;52.382;5.260;2023-01-25T11:45:38;103389.19;;;4.12;100.00
44765;BME280;30484;52.382;5.260;2023-01-25T11:48:29;103386.75;;;4.24;100.00
44765;BME280;30484;52.382;5.260;2023-01-25T11:51:07;103384.53;;;3.98;100.00
44765;BME280;30484;52.382;5.260;2023-01-25T11:53:58;103385.56;;;4.07;100.00
44765;BME280;30484;52.382;5.260;2023-01-25T11:56:47;103368.13;;;4.18;100.00
44765;BME280;30484;52.382;5.260;2023-01-25T12:03:04;103353.25;;;4.25;100.00
44765;BME280;30484;52.382;5.260;2023-01-25T12:05:52;103330.19;;;4.18;100.00
44765;BME280;30484;52.382;5.260;2023-01-25T12:08:56;103335.31;;;4.07;100.00
44765;BME280;30484;52.382;5.260;2023-01-25T12:12:11;103328.66;;;4.32;100.00
44765;BME280;30484;52.382;5.260;2023-01-25T12:15:26;103328.75;;;3.86;100.00
44765;BME280;30484;52.382;5.260;2023-01-25T12:21:33;103310.75;;;3.63;100.00
44765;BME280;30484;52.382;5.260;2023-01-25T12:24:39;103306.66;;;3.81;100.00
44765;BME280;30484;52.382;5.260;2023-01-25T12:27:48;103286.97;;;4.19;100.00
44765;BME280;30484;52.382;5.260;2023-01-25T12:30:42;103282.22;;;3.97;100.00
44765;BME280;30484;52.382;5.260;2023-01-25T12:33:31;103281.59;;;3.60;100.00
44765;BME280;30484;52.382;5.260;2023-01-25T12:36:18;103278.94;;;4.12;100.00
44765;BME280;30484;52.382;5.260;2023-01-25T12:39:04;103278.38;;;3.30;100.00
44765;BME280;30484;52.382;5.260;2023-01-25T12:41:52;103272.22;;;3.78;100.00
44765;BME280;30484;52.382;5.260;2023-01-25T12:44:38;103278.97;;;3.15;100.00
44765;BME280;30484;52.382;5.260;2023-01-25T12:47:18;103276.88;;;3.42;100.00
44765;BME280;30484;52.382;5.260;2023-01-25T12:50:19;103261.25;;;4.08;100.00
44765;BME280;30484;52.382;5.260;2023-01-25T12:53:01;103268.13;;;3.45;100.00
44765;BME280;30484;52.382;5.260;2023-01-25T12:56:16;103255.38;;;3.73;100.00
44765;BME280;30484;52.382;5.260;2023-01-25T12:59:02;103249.47;;;3.88;100.00
44765;BME280;30484;52.382;5.260;2023-01-25T13:01:47;103243.56;;;3.52;100.00
44765;BME280;30484;52.382;5.260;2023-01-25T13:04:57;103244.19;;;3.88;100.00
44765;BME280;30484;52.382;5.260;2023-01-25T13:07:38;103242.66;;;4.04;100.00
44765;BME280;30484;52.382;5.260;2023-01-25T13:10:24;103241.84;;;4.08;100.00
44765;BME280;30484;52.382;5.260;2023-01-25T13:13:22;103237.47;;;4.10;100.00
44765;BME280;30484;52.382;5.260;2023-01-25T13:19:42;103227.19;;;3.24;100.00
44765;BME280;30484;52.382;5.260;2023-01-25T13:22:52;103225.59;;;3.33;100.00
44765;BME280;30484;52.382;5.260;2023-01-25T13:25:25;103219.41;;;3.84;100.00
44765;BME280;30484;52.382;5.260;2023-01-25T13:28:40;103211.53;;;3.87;100.00
44765;BME280;30484;52.382;5.260;2023-01-25T13:31:43;103207.88;;;3.79;100.00
44765;BME280;30484;52.382;5.260;2023-01-25T13:34:55;103208.63;;;3.72;100.00
44765;BME280;30484;52.382;5.260;2023-01-25T13:37:32;103198.31;;;3.87;100.00
44765;BME280;30484;52.382;5.260;2023-01-25T13:40:26;103193.53;;;3.65;100.00
44765;BME280;30484;52.382;5.260;2023-01-25T13:43:04;103191.38;;;3.42;100.00
44765;BME280;30484;52.382;5.260;2023-01-25T13:45:39;103182.75;;;3.51;100.00
44765;BME280;30484;52.382;5.260;2023-01-25T13:48:14;103186.09;;;3.95;100.00
44765;BME280;30484;52.382;5.260;2023-01-25T13:50:51;103175.41;;;2.85;100.00
44765;BME280;30484;52.382;5.260;2023-01-25T13:53:27;103170.53;;;3.07;100.00
44765;BME280;30484;52.382;5.260;2023-01-25T13:56:02;103176.94;;;3.20;100.00